Time;durP1;ratioP1;P1;durP2;ratioP2;P2;SDS_P1;SDS_P2;PMS_P1;PMS_P2;Temp;Humidity;BMP_temperature;BMP_pressure;BME280_temperature;BME280_humidity;BME280_pressure;Samples;Min_cycle;Max_cycle;Signal;HPM_P1;HPM_P2
2023/10/25 00:02:11;;;;;;;25.77;11.93;;;10.30;99.90;;;;;;5034514;28;20184;-57
2023/10/25 00:04:37;;;;;;;28.85;12.75;;;10.30;99.90;;;;;;5035147;28;20561;-55
2023/10/25 00:07:03;;;;;;;26.75;12.05;;;10.20;99.90;;;;;;5034576;28;20220;-54
2023/10/25 00:09:29;;;;;;;22.83;13.05;;;10.20;99.90;;;;;;5000457;28;20541;-53
2023/10/25 00:11:55;;;;;;;23.00;12.13;;;10.20;99.90;;;;;;5017463;28;20246;-56
2023/10/25 00:14:22;;;;;;;23.85;11.75;;;10.20;99.90;;;;;;5034429;28;20548;-56
2023/10/25 00:16:48;;;;;;;21.20;11.45;;;10.10;99.90;;;;;;5034527;28;20180;-61
2023/10/25 00:19:14;;;;;;;23.08;11.32;;;10.20;99.90;;;;;;5034413;28;20706;-59
2023/10/25 00:21:39;;;;;;;22.35;11.00;;;10.20;99.90;;;;;;5034807;28;20693;-55
2023/10/25 00:24:06;;;;;;;27.80;10.93;;;10.20;99.90;;;;;;5034372;28;20184;-50
2023/10/25 00:26:32;;;;;;;21.73;11.00;;;10.10;99.90;;;;;;5016629;28;20242;-50
2023/10/25 00:28:58;;;;;;;21.48;10.73;;;10.10;99.90;;;;;;5034576;28;20525;-58
2023/10/25 00:31:25;;;;;;;18.80;10.35;;;10.10;99.90;;;;;;5033883;28;20242;-56
2023/10/25 00:33:51;;;;;;;22.35;10.95;;;10.10;99.90;;;;;;5033907;28;20267;-56
2023/10/25 00:36:17;;;;;;;20.40;10.95;;;10.00;99.90;;;;;;5033979;28;20176;-57
2023/10/25 00:38:43;;;;;;;24.75;10.93;;;10.00;99.90;;;;;;5033993;28;20180;-62
2023/10/25 00:41:09;;;;;;;23.10;10.48;;;10.00;99.90;;;;;;5033810;28;20207;-57
2023/10/25 00:43:35;;;;;;;21.13;10.57;;;10.00;99.90;;;;;;5034077;28;20180;-53
2023/10/25 00:46:05;;;;;;;20.30;10.38;;;10.00;99.90;;;;;;5016036;28;20187;-54
2023/10/25 00:48:33;;;;;;;21.95;11.15;;;10.00;99.90;;;;;;5033605;28;20188;-56
2023/10/25 00:50:59;;;;;;;21.08;10.65;;;10.00;99.90;;;;;;5015765;28;20172;-56
2023/10/25 00:53:28;;;;;;;27.23;11.48;;;10.00;99.90;;;;;;5015735;28;20389;-59
2023/10/25 00:55:56;;;;;;;23.02;11.05;;;9.90;99.90;;;;;;5033778;28;20184;-60
2023/10/25 00:58:24;;;;;;;21.05;11.13;;;9.90;99.90;;;;;;5016075;28;20184;-58
2023/10/25 01:00:52;;;;;;;17.65;10.65;;;9.90;99.90;;;;;;5033721;28;20207;-56
2023/10/25 01:03:18;;;;;;;21.48;10.73;;;9.90;99.90;;;;;;5033363;28;20186;-59
2023/10/25 01:05:44;;;;;;;19.40;10.75;;;9.90;99.90;;;;;;5015959;28;20168;-57
2023/10/25 01:08:10;;;;;;;25.10;11.63;;;9.80;99.90;;;;;;5033749;28;20716;-58
2023/10/25 01:10:36;;;;;;;23.90;11.80;;;9.80;99.90;;;;;;5033934;28;20187;-54
2023/10/25 01:13:02;;;;;;;21.48;12.13;;;9.80;99.90;;;;;;5033297;28;20204;-55
2023/10/25 01:15:28;;;;;;;20.92;11.32;;;9.80;99.90;;;;;;5033204;28;20248;-60
2023/10/25 01:17:54;;;;;;;23.13;12.15;;;9.80;99.90;;;;;;5033048;28;20195;-60
2023/10/25 01:20:20;;;;;;;21.33;11.13;;;9.80;99.90;;;;;;5033696;28;20180;-57
2023/10/25 01:22:47;;;;;;;23.00;11.63;;;9.70;99.90;;;;;;5033638;28;20663;-61
2023/10/25 01:25:14;;;;;;;25.40;11.40;;;9.70;99.90;;;;;;5033059;28;20210;-58
2023/10/25 01:27:40;;;;;;;17.92;11.52;;;9.70;99.90;;;;;;5033192;28;20219;-56
2023/10/25 01:30:07;;;;;;;19.23;11.82;;;9.70;99.90;;;;;;5032944;28;20191;-56
2023/10/25 01:32:33;;;;;;;22.02;11.73;;;9.70;99.90;;;;;;5031715;28;20207;-57
2023/10/25 01:34:59;;;;;;;25.23;12.10;;;9.70;99.90;;;;;;5031554;28;20210;-60
2023/10/25 01:37:25;;;;;;;22.23;12.02;;;9.60;99.90;;;;;;5015811;28;20269;-59
2023/10/25 01:39:51;;;;;;;20.45;11.48;;;9.60;99.90;;;;;;5032941;28;20621;-59
2023/10/25 01:42:17;;;;;;;23.80;12.05;;;9.60;99.90;;;;;;5033043;28;20206;-59
2023/10/25 01:44:44;;;;;;;20.70;11.80;;;9.60;99.90;;;;;;5032633;28;20179;-52
2023/10/25 01:47:10;;;;;;;23.58;11.85;;;9.60;99.90;;;;;;5033008;28;20188;-58
2023/10/25 01:49:35;;;;;;;18.17;11.50;;;9.50;99.90;;;;;;5032482;28;20646;-57
2023/10/25 01:52:02;;;;;;;24.63;12.15;;;9.50;99.90;;;;;;5015159;28;20672;-57
2023/10/25 01:54:28;;;;;;;21.25;11.57;;;9.50;99.90;;;;;;5031938;28;20261;-55
2023/10/25 01:56:54;;;;;;;18.33;11.50;;;9.50;99.90;;;;;;5014708;28;20184;-55
2023/10/25 01:59:20;;;;;;;20.67;11.50;;;9.50;99.90;;;;;;5015011;28;20227;-58
2023/10/25 02:01:45;;;;;;;22.20;11.88;;;9.50;99.90;;;;;;4998910;28;20691;-56
2023/10/25 02:04:11;;;;;;;26.67;12.65;;;9.40;99.90;;;;;;5014628;28;20220;-59
2023/10/25 02:06:37;;;;;;;21.92;11.73;;;9.40;99.90;;;;;;5032636;28;20238;-61
2023/10/25 02:09:03;;;;;;;23.65;11.80;;;9.40;99.90;;;;;;5014683;28;20242;-61
2023/10/25 02:11:29;;;;;;;28.08;12.13;;;9.40;99.90;;;;;;5032372;28;20211;-59
2023/10/25 02:13:57;;;;;;;22.52;10.75;;;9.40;99.90;;;;;;5014275;28;20191;-59
2023/10/25 02:16:23;;;;;;;20.00;11.20;;;9.40;99.90;;;;;;5014719;28;20172;-54
2023/10/25 02:18:49;;;;;;;23.50;11.90;;;9.40;99.90;;;;;;5014393;28;20198;-53
2023/10/25 02:21:15;;;;;;;25.75;11.90;;;9.40;99.90;;;;;;5032101;28;20187;-51
2023/10/25 02:23:42;;;;;;;23.73;11.73;;;9.40;99.90;;;;;;5015196;28;20682;-55
2023/10/25 02:26:08;;;;;;;18.75;11.27;;;9.40;99.90;;;;;;5014400;28;20663;-60
2023/10/25 02:28:34;;;;;;;21.02;12.27;;;9.30;99.90;;;;;;4998373;28;20175;-55
2023/10/25 02:31:01;;;;;;;20.65;12.18;;;9.30;99.90;;;;;;5014540;28;20205;-60
2023/10/25 02:33:27;;;;;;;29.33;12.20;;;9.30;99.90;;;;;;5032042;28;20211;-54
2023/10/25 02:35:53;;;;;;;24.73;12.15;;;9.30;99.90;;;;;;5032183;28;20184;-57
2023/10/25 02:38:20;;;;;;;24.40;12.80;;;9.30;99.90;;;;;;5014827;28;20628;-54
2023/10/25 02:40:46;;;;;;;27.50;12.32;;;9.30;99.90;;;;;;5014391;28;20187;-56
2023/10/25 02:43:12;;;;;;;29.15;13.45;;;9.20;99.90;;;;;;5032381;28;20640;-56
2023/10/25 02:45:37;;;;;;;26.30;13.70;;;9.20;99.90;;;;;;5014078;28;20230;-54
2023/10/25 02:48:11;;;;;;;24.73;13.52;;;9.20;99.90;;;;;;5032136;28;20182;-60
2023/10/25 02:50:37;;;;;;;28.70;13.90;;;9.20;99.90;;;;;;5032163;28;20172;-59
2023/10/25 02:53:03;;;;;;;26.85;13.80;;;9.20;99.90;;;;;;5014791;28;20561;-56
2023/10/25 02:55:29;;;;;;;28.10;14.80;;;9.20;99.90;;;;;;5032197;28;20254;-54
2023/10/25 02:57:58;;;;;;;28.73;13.68;;;9.20;99.90;;;;;;5031005;28;20188;-57
2023/10/25 03:00:25;;;;;;;24.65;14.85;;;9.20;99.90;;;;;;5031943;28;20184;-58
2023/10/25 03:02:51;;;;;;;27.77;15.10;;;9.20;99.90;;;;;;5031712;28;20321;-58
2023/10/25 03:05:17;;;;;;;32.38;15.43;;;9.20;99.90;;;;;;5032159;28;20698;-58
2023/10/25 03:07:43;;;;;;;30.23;16.25;;;9.20;99.90;;;;;;5018018;28;20188;-59
2023/10/25 03:10:09;;;;;;;35.78;16.30;;;9.20;99.90;;;;;;5035827;28;20200;-57
2023/10/25 03:12:35;;;;;;;31.92;16.75;;;9.20;99.90;;;;;;5017765;28;20219;-54
2023/10/25 03:15:01;;;;;;;32.50;17.02;;;9.10;99.90;;;;;;5036024;28;20186;-55
2023/10/25 03:17:28;;;;;;;32.38;17.25;;;9.10;99.90;;;;;;5035670;28;20176;-58
2023/10/25 03:19:54;;;;;;;31.35;17.88;;;9.10;99.90;;;;;;5035825;28;20180;-60
2023/10/25 03:22:20;;;;;;;39.22;18.33;;;9.10;99.90;;;;;;5035797;28;20263;-55
2023/10/25 03:24:46;;;;;;;32.08;17.90;;;9.10;99.90;;;;;;5018110;28;20242;-55
2023/10/25 03:27:12;;;;;;;30.10;17.42;;;9.10;99.90;;;;;;5001416;28;20184;-55
2023/10/25 03:29:38;;;;;;;36.33;19.55;;;9.10;99.90;;;;;;5034268;28;20561;-58
2023/10/25 03:32:05;;;;;;;33.97;19.00;;;9.10;99.90;;;;;;5035806;28;20274;-58
2023/10/25 03:34:31;;;;;;;35.70;19.83;;;9.10;99.90;;;;;;5035260;28;20582;-55
2023/10/25 03:36:57;;;;;;;34.97;19.90;;;9.10;99.90;;;;;;5001723;28;20187;-60
2023/10/25 03:39:23;;;;;;;31.75;19.50;;;9.10;99.90;;;;;;5034845;28;20558;-59
2023/10/25 03:41:48;;;;;;;33.15;19.42;;;9.10;99.90;;;;;;5035865;28;20251;-60
2023/10/25 03:44:14;;;;;;;36.05;19.83;;;9.10;99.90;;;;;;5033992;28;20195;-61
2023/10/25 03:46:40;;;;;;;33.15;20.67;;;9.10;99.90;;;;;;5034765;28;20187;-58
2023/10/25 03:49:07;;;;;;;38.70;21.40;;;9.10;99.90;;;;;;5034853;28;20218;-58
2023/10/25 03:51:33;;;;;;;35.72;21.60;;;9.00;99.90;;;;;;5017794;28;20587;-57
2023/10/25 03:53:59;;;;;;;33.30;20.80;;;9.10;99.90;;;;;;5017311;28;20184;-59
2023/10/25 03:56:25;;;;;;;35.10;21.50;;;9.00;99.90;;;;;;5034866;28;20184;-57
2023/10/25 03:58:51;;;;;;;37.17;21.67;;;9.00;99.90;;;;;;5017414;28;20773;-61
2023/10/25 04:01:17;;;;;;;33.25;21.05;;;9.00;99.90;;;;;;5000958;28;20267;-60
2023/10/25 04:03:43;;;;;;;37.55;22.60;;;9.00;99.90;;;;;;5033221;28;20238;-54
2023/10/25 04:06:09;;;;;;;41.47;22.42;;;9.00;99.90;;;;;;5034549;28;20199;-62
2023/10/25 04:08:35;;;;;;;39.22;21.65;;;9.10;99.90;;;;;;5034744;28;20647;-59
2023/10/25 04:11:01;;;;;;;33.78;21.35;;;9.00;99.90;;;;;;5016804;28;20259;-57
2023/10/25 04:13:27;;;;;;;38.38;22.35;;;9.10;99.90;;;;;;5034435;28;20179;-61
2023/10/25 04:15:57;;;;;;;33.38;21.48;;;9.00;99.90;;;;;;5034444;28;20669;-56
2023/10/25 04:18:24;;;;;;;42.55;21.15;;;9.00;99.90;;;;;;5034644;28;20216;-56
2023/10/25 04:20:51;;;;;;;40.67;21.80;;;9.00;99.90;;;;;;5034691;28;20278;-59
2023/10/25 04:23:18;;;;;;;32.17;20.55;;;9.00;99.90;;;;;;5034604;28;20187;-58
2023/10/25 04:25:44;;;;;;;38.33;21.45;;;9.00;99.90;;;;;;5034132;28;20198;-58
2023/10/25 04:28:10;;;;;;;38.75;21.83;;;9.00;99.90;;;;;;5017170;28;20187;-55
2023/10/25 04:30:36;;;;;;;39.47;21.52;;;9.00;99.90;;;;;;5016847;28;20215;-62
2023/10/25 04:33:02;;;;;;;33.67;20.73;;;9.00;99.90;;;;;;5034627;28;20215;-57
2023/10/25 04:35:29;;;;;;;30.17;20.08;;;9.00;99.90;;;;;;5034149;28;20180;-57
2023/10/25 04:37:55;;;;;;;42.38;20.83;;;9.00;99.90;;;;;;5033036;28;20207;-58
2023/10/25 04:40:24;;;;;;;36.05;20.60;;;9.00;99.90;;;;;;5033901;28;20583;-59
2023/10/25 04:42:50;;;;;;;34.97;19.83;;;9.00;99.90;;;;;;5034028;28;20279;-58
2023/10/25 04:45:17;;;;;;;37.70;20.95;;;9.00;99.90;;;;;;5033819;28;20640;-59
2023/10/25 04:47:43;;;;;;;34.08;19.02;;;9.00;99.90;;;;;;5033942;28;20614;-52
2023/10/25 04:50:09;;;;;;;39.83;20.60;;;9.00;99.90;;;;;;5034176;28;20188;-59
2023/10/25 04:52:35;;;;;;;37.75;19.55;;;9.00;99.90;;;;;;5034049;28;20207;-57
2023/10/25 04:55:01;;;;;;;28.98;19.75;;;9.00;99.90;;;;;;5034317;28;20192;-61
2023/10/25 04:57:27;;;;;;;34.22;20.45;;;9.00;99.90;;;;;;5034169;28;20557;-60
2023/10/25 04:59:53;;;;;;;31.83;19.27;;;8.90;99.90;;;;;;5000024;28;20274;-60
2023/10/25 05:02:19;;;;;;;34.47;19.50;;;8.90;99.90;;;;;;5034234;28;20192;-59
2023/10/25 05:04:47;;;;;;;32.85;19.13;;;8.90;99.90;;;;;;5033580;28;20242;-55
2023/10/25 05:07:13;;;;;;;31.23;20.00;;;8.90;99.90;;;;;;5033568;28;20180;-54
2023/10/25 05:09:39;;;;;;;29.23;18.90;;;8.90;99.90;;;;;;5015535;28;20204;-56
2023/10/25 05:12:13;;;;;;;32.72;18.77;;;8.90;99.90;;;;;;5033756;28;20215;-60
2023/10/25 05:14:39;;;;;;;31.73;19.00;;;8.90;99.90;;;;;;5033349;28;20223;-52
2023/10/25 05:17:06;;;;;;;38.10;19.27;;;8.90;99.90;;;;;;5033137;28;20255;-53
2023/10/25 05:19:33;;;;;;;26.27;18.30;;;8.90;99.90;;;;;;5033515;28;20230;-51
2023/10/25 05:22:06;;;;;;;34.97;18.88;;;8.90;99.90;;;;;;5032893;28;20184;-59
2023/10/25 05:24:32;;;;;;;34.13;19.27;;;8.90;99.90;;;;;;5033498;28;20636;-60
2023/10/25 05:26:58;;;;;;;35.13;18.77;;;8.90;99.90;;;;;;5033551;28;20181;-55
2023/10/25 05:29:24;;;;;;;30.20;18.38;;;8.90;99.90;;;;;;5032145;28;20180;-56
2023/10/25 05:31:53;;;;;;;31.15;18.67;;;8.80;99.90;;;;;;5033163;28;20211;-55
2023/10/25 05:34:19;;;;;;;30.80;17.92;;;8.80;99.90;;;;;;5015872;28;20176;-56
2023/10/25 05:36:46;;;;;;;33.50;17.85;;;8.80;99.90;;;;;;5015554;28;20203;-60
2023/10/25 05:39:12;;;;;;;37.38;19.13;;;8.80;99.90;;;;;;5015348;28;20208;-55
2023/10/25 05:41:40;;;;;;;32.08;17.58;;;8.70;99.90;;;;;;5015381;28;20669;-59
2023/10/25 05:44:13;;;;;;;28.67;18.35;;;8.70;99.90;;;;;;5015906;28;20285;-52
2023/10/25 05:46:38;;;;;;;31.38;17.92;;;8.70;99.90;;;;;;5032947;28;20164;-53
2023/10/25 05:49:05;;;;;;;27.85;17.52;;;8.70;99.90;;;;;;5033013;28;20203;-55
2023/10/25 05:51:31;;;;;;;38.42;18.58;;;8.70;99.90;;;;;;5032506;28;20290;-54
2023/10/25 05:53:59;;;;;;;32.95;17.60;;;8.70;99.90;;;;;;5032732;28;20207;-57
2023/10/25 05:56:28;;;;;;;30.20;16.83;;;8.70;99.90;;;;;;5015429;28;20261;-57
2023/10/25 05:58:55;;;;;;;29.42;16.88;;;8.70;99.90;;;;;;5032827;28;20180;-59
2023/10/25 06:01:40;;;;;;;32.00;17.55;;;8.70;99.90;;;;;;5014899;28;20184;-54
2023/10/25 06:04:08;;;;;;;28.95;17.70;;;8.60;99.90;;;;;;5015329;28;20172;-59
2023/10/25 06:06:37;;;;;;;35.13;17.63;;;8.60;99.90;;;;;;5033426;28;20172;-59
2023/10/25 06:09:04;;;;;;;32.22;19.75;;;8.60;99.90;;;;;;5032121;28;20180;-58
2023/10/25 06:11:30;;;;;;;37.03;18.02;;;8.60;99.90;;;;;;5032044;28;20215;-59
2023/10/25 06:13:57;;;;;;;32.10;17.15;;;8.60;99.90;;;;;;5032573;28;20179;-60
2023/10/25 06:16:22;;;;;;;26.33;16.02;;;8.60;99.90;;;;;;5032227;28;20234;-57
2023/10/25 06:18:48;;;;;;;28.52;17.77;;;8.60;99.90;;;;;;5032520;28;20179;-54
2023/10/25 06:21:14;;;;;;;34.33;16.85;;;8.60;99.90;;;;;;5032397;28;20180;-57
2023/10/25 06:23:40;;;;;;;33.45;16.48;;;8.60;99.90;;;;;;5014580;28;20715;-57
2023/10/25 06:26:06;;;;;;;30.00;16.52;;;8.60;99.90;;;;;;5031971;28;20259;-59
2023/10/25 06:28:35;;;;;;;29.63;17.00;;;8.60;99.90;;;;;;5032170;28;20254;-59
2023/10/25 06:31:01;;;;;;;29.60;16.90;;;8.60;99.90;;;;;;5032470;28;20314;-58
2023/10/25 06:33:27;;;;;;;27.05;16.20;;;8.60;99.90;;;;;;5014855;28;20599;-62
2023/10/25 06:35:58;;;;;;;32.00;16.08;;;8.60;99.90;;;;;;5032366;28;20207;-59
2023/10/25 06:38:26;;;;;;;29.35;16.17;;;8.60;99.90;;;;;;5032098;28;20210;-63
2023/10/25 06:40:52;;;;;;;28.85;16.00;;;8.60;99.90;;;;;;5031679;28;20259;-58
2023/10/25 06:43:18;;;;;;;25.58;15.77;;;8.60;99.90;;;;;;5032274;28;20192;-57
2023/10/25 06:45:47;;;;;;;25.08;15.20;;;8.60;99.90;;;;;;5032100;28;20262;-58
2023/10/25 06:48:13;;;;;;;28.30;15.23;;;8.60;99.90;;;;;;5032262;28;20184;-57
2023/10/25 06:50:40;;;;;;;32.63;15.13;;;8.70;99.90;;;;;;5031763;28;20682;-53
2023/10/25 06:53:06;;;;;;;27.35;14.70;;;8.70;99.90;;;;;;5032044;28;20203;-56
2023/10/25 06:55:32;;;;;;;26.67;14.63;;;8.70;99.90;;;;;;5031701;28;20184;-61
2023/10/25 06:57:58;;;;;;;25.08;14.63;;;8.70;99.90;;;;;;5031868;28;20234;-61
2023/10/25 07:00:25;;;;;;;27.63;15.13;;;8.70;99.90;;;;;;5032131;28;20259;-59
2023/10/25 07:03:02;;;;;;;24.83;14.10;;;8.80;99.90;;;;;;5030842;28;20275;-59
2023/10/25 07:05:29;;;;;;;23.13;14.40;;;8.80;99.90;;;;;;5032027;28;20219;-58
2023/10/25 07:07:56;;;;;;;25.10;14.50;;;8.80;99.90;;;;;;5031772;28;20191;-59
2023/10/25 07:10:23;;;;;;;26.40;14.45;;;8.80;99.90;;;;;;5031700;28;20277;-61
2023/10/25 07:12:50;;;;;;;22.85;13.70;;;8.90;99.90;;;;;;5030604;28;20223;-62
2023/10/25 07:15:18;;;;;;;22.42;14.27;;;8.90;99.90;;;;;;5031875;28;20513;-55
2023/10/25 07:17:49;;;;;;;32.55;18.17;;;8.90;99.90;;;;;;5031616;28;20212;-58
2023/10/25 07:20:15;;;;;;;26.58;13.75;;;8.90;99.90;;;;;;5014201;28;20180;-57
2023/10/25 07:22:42;;;;;;;27.13;14.02;;;9.00;99.90;;;;;;5031898;28;20180;-56
2023/10/25 07:25:08;;;;;;;33.50;14.20;;;9.00;99.90;;;;;;5031136;28;20188;-59
2023/10/25 07:27:37;;;;;;;23.75;12.77;;;9.00;99.90;;;;;;5031412;28;20637;-55
2023/10/25 07:30:04;;;;;;;22.73;13.85;;;9.00;99.90;;;;;;5031512;28;20714;-61
2023/10/25 07:32:31;;;;;;;28.45;13.48;;;9.10;99.90;;;;;;5031938;28;20694;-59
2023/10/25 07:34:57;;;;;;;23.88;13.18;;;9.10;99.90;;;;;;5031276;28;20688;-58
2023/10/25 07:37:23;;;;;;;21.48;13.13;;;9.10;99.90;;;;;;5031725;28;20218;-59
2023/10/25 07:39:49;;;;;;;26.60;12.68;;;9.10;99.90;;;;;;5031420;28;20168;-58
2023/10/25 07:42:15;;;;;;;22.85;13.90;;;9.10;99.90;;;;;;5031121;28;20179;-59
2023/10/25 07:44:41;;;;;;;24.55;12.57;;;9.10;99.90;;;;;;5031187;28;20633;-55
2023/10/25 07:47:07;;;;;;;23.92;13.70;;;9.20;99.90;;;;;;5013697;28;20190;-56
2023/10/25 07:49:36;;;;;;;22.35;13.10;;;9.20;99.90;;;;;;5013661;28;20183;-61
2023/10/25 07:52:03;;;;;;;25.17;13.80;;;9.20;99.90;;;;;;5032399;28;20702;-57
2023/10/25 07:54:29;;;;;;;28.75;13.63;;;9.30;99.90;;;;;;5034427;28;20207;-60
2023/10/25 07:56:55;;;;;;;21.55;13.23;;;9.30;99.90;;;;;;5034666;28;20211;-57
2023/10/25 07:59:21;;;;;;;25.23;13.05;;;9.30;99.90;;;;;;5016768;28;20176;-54
2023/10/25 08:01:48;;;;;;;25.02;13.48;;;9.40;99.90;;;;;;5034952;28;20180;-60
2023/10/25 08:04:14;;;;;;;20.02;12.75;;;9.40;99.90;;;;;;5000508;28;20619;-57
2023/10/25 08:06:43;;;;;;;20.77;13.00;;;9.40;99.90;;;;;;5016482;28;20239;-56
2023/10/25 08:09:09;;;;;;;19.27;13.10;;;9.40;99.90;;;;;;5034556;28;20186;-55
2023/10/25 08:11:36;;;;;;;24.35;13.75;;;9.50;99.90;;;;;;5034552;28;20204;-59
2023/10/25 08:14:03;;;;;;;20.05;12.32;;;9.50;99.90;;;;;;5033988;28;20202;-54
2023/10/25 08:16:29;;;;;;;20.85;12.43;;;9.50;99.90;;;;;;5034720;28;20267;-59
2023/10/25 08:18:55;;;;;;;19.92;11.65;;;9.50;99.90;;;;;;5016875;28;20583;-56
2023/10/25 08:21:21;;;;;;;21.00;12.13;;;9.50;99.90;;;;;;5033726;28;20183;-60
2023/10/25 08:23:51;;;;;;;21.85;12.00;;;9.60;99.90;;;;;;5033714;28;20667;-56
2023/10/25 08:26:21;;;;;;;22.88;12.80;;;9.60;99.90;;;;;;5033964;28;20194;-61
2023/10/25 08:28:47;;;;;;;23.92;11.80;;;9.70;99.90;;;;;;5034411;28;20164;-55
2023/10/25 08:31:14;;;;;;;20.65;11.25;;;9.70;99.90;;;;;;5033562;28;20172;-56
2023/10/25 08:33:40;;;;;;;22.25;11.27;;;9.80;99.90;;;;;;5033859;28;20263;-61
2023/10/25 08:36:06;;;;;;;21.40;13.05;;;9.80;99.90;;;;;;5033537;28;20187;-57
2023/10/25 08:38:32;;;;;;;21.67;12.20;;;10.00;99.90;;;;;;5033626;28;20237;-56
2023/10/25 08:41:06;;;;;;;22.67;11.52;;;10.00;99.90;;;;;;5015762;28;20184;-55
2023/10/25 08:43:35;;;;;;;18.58;11.10;;;10.10;99.90;;;;;;5033423;28;20611;-57
2023/10/25 08:46:03;;;;;;;22.20;10.80;;;10.20;99.90;;;;;;5033857;28;20271;-56
2023/10/25 08:48:29;;;;;;;20.30;11.00;;;10.20;99.90;;;;;;5033845;28;20176;-56
2023/10/25 08:50:56;;;;;;;17.73;11.13;;;10.30;99.90;;;;;;5033384;28;20187;-54
2023/10/25 08:53:24;;;;;;;21.80;11.93;;;10.40;99.90;;;;;;5033848;28;20203;-61
2023/10/25 08:55:56;;;;;;;25.92;12.15;;;10.40;99.90;;;;;;5033366;28;20215;-61
2023/10/25 08:58:26;;;;;;;19.23;11.02;;;10.50;99.90;;;;;;5032956;28;20549;-56
2023/10/25 09:00:54;;;;;;;19.63;9.88;;;10.60;99.90;;;;;;5015479;28;20521;-58
2023/10/25 09:03:33;;;;;;;28.60;14.50;;;10.70;99.90;;;;;;5015660;28;20195;-57
2023/10/25 09:06:00;;;;;;;18.80;11.20;;;10.80;99.90;;;;;;5015456;28;20228;-59
2023/10/25 09:08:27;;;;;;;21.70;12.98;;;10.80;99.90;;;;;;5015664;28;20220;-57
2023/10/25 09:11:03;;;;;;;22.42;12.38;;;10.90;99.90;;;;;;5033010;28;20249;-59
2023/10/25 09:13:30;;;;;;;16.98;9.63;;;11.00;99.90;;;;;;5033248;28;20180;-57
2023/10/25 09:16:13;;;;;;;16.80;9.90;;;11.10;99.90;;;;;;5032485;28;20183;-55
2023/10/25 09:18:40;;;;;;;16.67;9.63;;;11.20;99.90;;;;;;5032895;28;20180;-58
2023/10/25 09:21:08;;;;;;;18.55;9.48;;;11.20;99.90;;;;;;5032446;28;20251;-58
2023/10/25 09:23:34;;;;;;;20.92;9.60;;;11.30;99.90;;;;;;5032824;28;20203;-55
2023/10/25 09:26:04;;;;;;;17.70;9.65;;;11.40;99.90;;;;;;5032815;28;20215;-57
2023/10/25 09:28:30;;;;;;;22.00;12.73;;;11.40;99.90;;;;;;5033176;28;20172;-55
2023/10/25 09:31:00;;;;;;;17.10;11.02;;;11.50;99.90;;;;;;5033122;28;20184;-57
2023/10/25 09:33:30;;;;;;;17.15;9.70;;;11.50;99.90;;;;;;5032808;28;20316;-59
2023/10/25 09:35:57;;;;;;;18.63;8.82;;;11.70;99.90;;;;;;5032582;28;20180;-59
2023/10/25 09:38:24;;;;;;;15.73;8.50;;;11.70;99.90;;;;;;5032584;28;20188;-59
2023/10/25 09:40:51;;;;;;;14.55;9.23;;;11.80;99.90;;;;;;5031305;28;20183;-59
2023/10/25 09:43:22;;;;;;;15.70;8.98;;;11.90;99.90;;;;;;5032716;28;20203;-57
2023/10/25 09:45:52;;;;;;;12.48;7.35;;;11.90;99.90;;;;;;5032640;28;20160;-57
2023/10/25 09:48:20;;;;;;;15.30;8.00;;;12.00;99.90;;;;;;5032303;28;20196;-57
2023/10/25 09:51:08;;;;;;;12.38;7.50;;;12.00;99.90;;;;;;5014504;28;20192;-59
2023/10/25 09:53:43;;;;;;;11.02;7.55;;;12.10;99.90;;;;;;5014573;28;20192;-58
2023/10/25 09:56:09;;;;;;;21.33;8.48;;;12.10;99.90;;;;;;5032252;28;20634;-56
2023/10/25 09:58:36;;;;;;;15.43;7.82;;;12.10;99.90;;;;;;5032112;28;20199;-58
2023/10/25 10:01:03;;;;;;;16.77;7.57;;;12.20;99.90;;;;;;5032479;28;20620;-52
2023/10/25 10:03:57;;;;;;;16.60;9.07;;;12.20;99.90;;;;;;5014351;28;20192;-57
2023/10/25 10:06:35;;;;;;;16.52;8.27;;;12.20;99.90;;;;;;5031530;28;20234;-54
2023/10/25 10:09:30;;;;;;;16.67;7.93;;;12.30;99.90;;;;;;5031797;28;20290;-57
2023/10/25 10:12:07;;;;;;;15.73;8.18;;;12.40;99.90;;;;;;5032087;28;20209;-59
2023/10/25 10:14:35;;;;;;;17.38;8.82;;;12.40;99.90;;;;;;5013796;28;20278;-55
2023/10/25 10:17:05;;;;;;;16.25;8.98;;;12.50;99.90;;;;;;5014051;28;20207;-56
2023/10/25 10:19:32;;;;;;;15.70;9.02;;;12.60;99.90;;;;;;5014063;28;20546;-60
2023/10/25 10:22:09;;;;;;;17.13;7.95;;;12.60;99.90;;;;;;5031436;28;20637;-56
2023/10/25 10:24:46;;;;;;;14.02;8.32;;;12.70;99.90;;;;;;5030896;28;20170;-60
2023/10/25 10:27:18;;;;;;;16.02;8.20;;;12.70;99.90;;;;;;5032041;28;20172;-61
2023/10/25 10:29:46;;;;;;;14.55;8.30;;;12.70;99.90;;;;;;5031602;28;20171;-58
2023/10/25 10:32:12;;;;;;;18.05;8.88;;;12.80;99.90;;;;;;5031570;28;20276;-58
2023/10/25 10:34:50;;;;;;;15.88;8.80;;;12.90;99.90;;;;;;5031403;28;20195;-57
2023/10/25 10:37:22;;;;;;;12.02;8.00;;;13.00;99.90;;;;;;5013842;28;20202;-62
2023/10/25 10:39:57;;;;;;;14.98;8.30;;;13.00;99.90;;;;;;5013936;28;20175;-55
2023/10/25 10:42:26;;;;;;;14.50;8.75;;;13.10;99.90;;;;;;5031638;28;20584;-56
2023/10/25 10:44:52;;;;;;;12.13;8.80;;;13.10;99.90;;;;;;5031259;28;20192;-57
2023/10/25 10:47:21;;;;;;;16.20;8.20;;;13.20;99.90;;;;;;5013499;28;20188;-54
2023/10/25 10:49:56;;;;;;;14.68;8.38;;;13.30;99.90;;;;;;5031075;28;20175;-61
2023/10/25 10:52:23;;;;;;;14.68;8.50;;;13.30;99.90;;;;;;5031221;28;20226;-56
2023/10/25 10:54:49;;;;;;;13.18;8.00;;;13.30;99.90;;;;;;5013876;28;20188;-58
2023/10/25 10:57:16;;;;;;;15.98;8.32;;;13.40;99.90;;;;;;5031175;28;20179;-54
2023/10/25 10:59:46;;;;;;;19.02;8.98;;;13.40;99.90;;;;;;5013580;28;20218;-53
2023/10/25 11:02:13;;;;;;;12.65;8.07;;;13.50;99.90;;;;;;5030983;28;20176;-58
2023/10/25 11:04:42;;;;;;;16.05;8.20;;;13.50;99.90;;;;;;5031036;28;20232;-55
2023/10/25 11:07:08;;;;;;;13.45;7.82;;;13.60;99.90;;;;;;5029548;28;20238;-56
2023/10/25 11:09:34;;;;;;;16.98;8.02;;;13.70;99.90;;;;;;5031551;28;20607;-61
2023/10/25 11:12:18;;;;;;;12.73;7.93;;;13.70;99.90;;;;;;5013478;28;20717;-57
2023/10/25 11:14:45;;;;;;;10.07;7.00;;;13.80;99.90;;;;;;5030682;28;20663;-54
2023/10/25 11:17:12;;;;;;;15.95;7.68;;;13.90;99.90;;;;;;5030714;28;20179;-60
2023/10/25 11:19:38;;;;;;;14.82;7.22;;;14.00;99.90;;;;;;5031045;28;20514;-56
2023/10/25 11:22:04;;;;;;;16.35;7.53;;;14.10;99.90;;;;;;5031005;28;20179;-59
2023/10/25 11:24:33;;;;;;;15.45;7.43;;;14.10;99.90;;;;;;5013582;28;20639;-56
2023/10/25 11:27:01;;;;;;;25.65;10.52;;;14.20;99.90;;;;;;5032264;28;20179;-57
2023/10/25 11:29:27;;;;;;;11.65;7.65;;;14.30;99.90;;;;;;5034811;28;20215;-55
2023/10/25 11:31:55;;;;;;;13.25;7.50;;;14.40;99.90;;;;;;5034697;28;20281;-59
2023/10/25 11:34:22;;;;;;;15.00;8.05;;;14.40;99.90;;;;;;5000723;28;20258;-60
2023/10/25 11:36:52;;;;;;;12.95;7.93;;;14.50;99.90;;;;;;5034435;28;20187;-56
2023/10/25 11:39:18;;;;;;;13.77;7.70;;;14.50;99.90;;;;;;5016567;28;20211;-58
2023/10/25 11:41:44;;;;;;;17.13;7.90;;;14.50;99.90;;;;;;5034461;28;20180;-56
2023/10/25 11:44:10;;;;;;;19.98;7.85;;;14.50;99.90;;;;;;5034197;28;20254;-59
2023/10/25 11:46:38;;;;;;;13.65;8.15;;;14.60;99.90;;;;;;5016499;28;20184;-55
2023/10/25 11:49:05;;;;;;;15.13;8.07;;;14.60;99.90;;;;;;5033936;28;20207;-57
2023/10/25 11:51:35;;;;;;;16.98;7.75;;;14.60;99.90;;;;;;5033823;28;20220;-57
2023/10/25 11:54:02;;;;;;;13.35;7.75;;;14.50;99.90;;;;;;5034008;28;20237;-54
2023/10/25 11:56:28;;;;;;;11.25;7.35;;;14.60;99.90;;;;;;5034275;28;20183;-57
2023/10/25 11:58:54;;;;;;;15.25;7.03;;;14.60;99.90;;;;;;5034300;28;20195;-59
2023/10/25 12:01:20;;;;;;;12.35;7.13;;;14.60;99.90;;;;;;5034097;28;20180;-59
2023/10/25 12:03:46;;;;;;;15.77;8.32;;;14.60;99.90;;;;;;5034214;28;20265;-58
2023/10/25 12:06:12;;;;;;;13.20;7.28;;;14.60;99.90;;;;;;5034190;28;20223;-57
2023/10/25 12:08:42;;;;;;;11.95;6.95;;;14.60;99.90;;;;;;5016305;28;20188;-56
2023/10/25 12:11:11;;;;;;;14.70;7.43;;;14.60;99.90;;;;;;5016412;28;20180;-58
2023/10/25 12:13:39;;;;;;;13.00;6.30;;;14.60;99.90;;;;;;5033714;28;20708;-57
2023/10/25 12:16:06;;;;;;;13.75;6.90;;;14.60;99.90;;;;;;5033328;28;20242;-58
2023/10/25 12:18:33;;;;;;;9.52;5.60;;;14.60;99.90;;;;;;5034127;28;20192;-61
2023/10/25 12:21:08;;;;;;;11.55;6.28;;;14.60;99.90;;;;;;5033831;28;20267;-60
2023/10/25 12:23:34;;;;;;;10.60;5.88;;;14.60;99.90;;;;;;5034115;28;20172;-60
2023/10/25 12:26:02;;;;;;;9.95;6.50;;;14.60;99.90;;;;;;5033950;28;20191;-56
2023/10/25 12:28:27;;;;;;;12.52;6.43;;;14.60;99.90;;;;;;5034020;28;20191;-61
2023/10/25 12:30:53;;;;;;;16.35;6.25;;;14.50;99.90;;;;;;5016139;28;20254;-60
2023/10/25 12:33:21;;;;;;;11.48;6.20;;;14.50;99.90;;;;;;5016434;28;20203;-57
2023/10/25 12:35:49;;;;;;;12.95;6.13;;;14.40;99.90;;;;;;5033767;28;20231;-59
2023/10/25 12:38:15;;;;;;;12.80;6.60;;;14.40;99.90;;;;;;5033411;28;20175;-60